ROMMA est une association bénévole à but non lucratif. Votre soutien est indispensable : ADHERER à ROMMA ou FAIRE un DON

Chindrieux - (73, Savoie)

Chautagne (260 m)   Longitude: 05°50' E   Latitude: 45°49' N Station partenaire n°74
 

Détail journalier du     <<     >>

Température Precipitation Humidité Pression Vent Dir Rafale Dir. rafale Ensol.
Heure (°C) (mm) (%) (hPa) (km/h) (km/h) (min)
01:00 10.6061101813NO37NO0
02:00 9.606310184NNO16NO0
03:00 7.607210182S8E0
04:00 9.806410179N24NNO0
05:00 9.106810175N26N0
06:00 9.406710179N23NNO0
07:00 7.807410174N24N0
08:00 9.107110175N18N0
09:00 9.707010177N18NNE0
10:00 11.606610175NNO26NNO0
11:00 13.3062101711NNO24NO40
12:00 14.105910169NNO24NO20
13:00 14.9055101610NNO26NO10
14:00 16.405110167ENE24NNE10
15:00 17.804710158N24N40
16:00 18.3047101511N34NO60
17:00 19.3046101410NNE29NO60
18:00 19.4046101410NNO24NO60
19:00 19.204910138NNO26NNE60
20:00 18.005110148NNO19NO60
21:00 15.905910145NNO15NO10
22:00 14.906110158N21N0
23:00 14.5061101513N32N0
minuit 13.6066101513N35N0

Graphique du 30-04-2019

 

Serveur OMMA